sensor_id;sensor_type;location;lat;lon;timestamp;temperature;humidity
24664;DHT22;12791;50.992;13.788;2023-04-06T00:02:14;2.70;84.30
24664;DHT22;12791;50.992;13.788;2023-04-06T00:04:40;2.40;84.60
24664;DHT22;12791;50.992;13.788;2023-04-06T00:07:07;2.40;84.60
24664;DHT22;12791;50.992;13.788;2023-04-06T00:09:34;2.40;84.90
24664;DHT22;12791;50.992;13.788;2023-04-06T00:12:00;2.40;84.20
24664;DHT22;12791;50.992;13.788;2023-04-06T00:14:27;2.40;84.00
24664;DHT22;12791;50.992;13.788;2023-04-06T00:16:56;2.60;84.90
24664;DHT22;12791;50.992;13.788;2023-04-06T00:19:23;2.50;85.00
24664;DHT22;12791;50.992;13.788;2023-04-06T00:21:49;2.50;84.80
24664;DHT22;12791;50.992;13.788;2023-04-06T00:24:16;2.60;84.00
24664;DHT22;12791;50.992;13.788;2023-04-06T00:26:43;2.40;83.50
24664;DHT22;12791;50.992;13.788;2023-04-06T00:29:09;2.60;83.80
24664;DHT22;12791;50.992;13.788;2023-04-06T00:31:36;2.50;84.00
24664;DHT22;12791;50.992;13.788;2023-04-06T00:34:05;2.60;83.80
24664;DHT22;12791;50.992;13.788;2023-04-06T00:36:32;2.60;83.60
24664;DHT22;12791;50.992;13.788;2023-04-06T00:38:59;2.60;83.10
24664;DHT22;12791;50.992;13.788;2023-04-06T00:41:25;2.60;82.90
24664;DHT22;12791;50.992;13.788;2023-04-06T00:43:54;2.60;82.60
24664;DHT22;12791;50.992;13.788;2023-04-06T00:46:20;2.60;83.20
24664;DHT22;12791;50.992;13.788;2023-04-06T00:48:47;2.60;82.60
24664;DHT22;12791;50.992;13.788;2023-04-06T00:51:15;2.60;82.60
24664;DHT22;12791;50.992;13.788;2023-04-06T00:53:42;2.60;82.50
24664;DHT22;12791;50.992;13.788;2023-04-06T00:56:08;2.90;82.30
24664;DHT22;12791;50.992;13.788;2023-04-06T00:58:36;2.60;81.80
24664;DHT22;12791;50.992;13.788;2023-04-06T01:01:04;2.60;81.80
24664;DHT22;12791;50.992;13.788;2023-04-06T01:03:31;2.60;81.50
24664;DHT22;12791;50.992;13.788;2023-04-06T01:05:57;2.60;81.30
24664;DHT22;12791;50.992;13.788;2023-04-06T01:08:26;2.60;81.00
24664;DHT22;12791;50.992;13.788;2023-04-06T01:10:53;2.60;80.90
24664;DHT22;12791;50.992;13.788;2023-04-06T01:13:19;2.80;81.10
24664;DHT22;12791;50.992;13.788;2023-04-06T01:15:46;2.50;81.10
24664;DHT22;12791;50.992;13.788;2023-04-06T01:18:13;2.70;81.30
24664;DHT22;12791;50.992;13.788;2023-04-06T01:20:40;2.50;81.10
24664;DHT22;12791;50.992;13.788;2023-04-06T01:23:08;2.50;80.90
24664;DHT22;12791;50.992;13.788;2023-04-06T01:25:35;2.50;80.90
24664;DHT22;12791;50.992;13.788;2023-04-06T01:28:01;2.40;81.50
24664;DHT22;12791;50.992;13.788;2023-04-06T01:30:28;2.40;81.60
24664;DHT22;12791;50.992;13.788;2023-04-06T01:32:55;2.50;81.70
24664;DHT22;12791;50.992;13.788;2023-04-06T01:35:21;2.30;81.80
24664;DHT22;12791;50.992;13.788;2023-04-06T01:37:48;2.20;82.40
24664;DHT22;12791;50.992;13.788;2023-04-06T01:40:16;2.10;82.30
24664;DHT22;12791;50.992;13.788;2023-04-06T01:42:43;2.10;83.10
24664;DHT22;12791;50.992;13.788;2023-04-06T01:45:10;2.10;83.60
24664;DHT22;12791;50.992;13.788;2023-04-06T01:47:36;2.10;84.10
24664;DHT22;12791;50.992;13.788;2023-04-06T01:50:03;2.10;84.00
24664;DHT22;12791;50.992;13.788;2023-04-06T01:52:31;2.00;83.40
24664;DHT22;12791;50.992;13.788;2023-04-06T01:54:58;2.10;83.70
24664;DHT22;12791;50.992;13.788;2023-04-06T01:57:26;2.10;83.80
24664;DHT22;12791;50.992;13.788;2023-04-06T01:59:52;2.20;83.60
24664;DHT22;12791;50.992;13.788;2023-04-06T02:02:19;2.20;83.30
24664;DHT22;12791;50.992;13.788;2023-04-06T02:04:46;2.20;83.30
24664;DHT22;12791;50.992;13.788;2023-04-06T02:07:12;2.10;83.20
24664;DHT22;12791;50.992;13.788;2023-04-06T02:09:39;2.00;83.00
24664;DHT22;12791;50.992;13.788;2023-04-06T02:12:05;2.00;83.70
24664;DHT22;12791;50.992;13.788;2023-04-06T02:14:33;2.00;83.00
24664;DHT22;12791;50.992;13.788;2023-04-06T02:17:00;2.00;82.90
24664;DHT22;12791;50.992;13.788;2023-04-06T02:19:27;2.10;83.10
24664;DHT22;12791;50.992;13.788;2023-04-06T02:21:53;2.20;83.20
24664;DHT22;12791;50.992;13.788;2023-04-06T02:24:20;2.00;82.90
24664;DHT22;12791;50.992;13.788;2023-04-06T02:26:46;2.10;82.80
24664;DHT22;12791;50.992;13.788;2023-04-06T02:29:13;2.10;82.40
24664;DHT22;12791;50.992;13.788;2023-04-06T02:31:41;2.00;82.30
24664;DHT22;12791;50.992;13.788;2023-04-06T02:34:08;2.00;82.70
24664;DHT22;12791;50.992;13.788;2023-04-06T02:36:37;2.00;82.50
24664;DHT22;12791;50.992;13.788;2023-04-06T02:39:03;1.80;82.70
24664;DHT22;12791;50.992;13.788;2023-04-06T02:41:30;1.90;82.70
24664;DHT22;12791;50.992;13.788;2023-04-06T02:43:57;1.90;82.60
24664;DHT22;12791;50.992;13.788;2023-04-06T02:46:23;1.90;82.40
24664;DHT22;12791;50.992;13.788;2023-04-06T02:48:52;1.90;82.20
24664;DHT22;12791;50.992;13.788;2023-04-06T02:51:18;1.80;81.80
24664;DHT22;12791;50.992;13.788;2023-04-06T02:53:45;2.00;82.40
24664;DHT22;12791;50.992;13.788;2023-04-06T02:56:12;1.80;82.80
24664;DHT22;12791;50.992;13.788;2023-04-06T02:58:39;1.70;83.30
24664;DHT22;12791;50.992;13.788;2023-04-06T03:01:05;1.70;83.00
24664;DHT22;12791;50.992;13.788;2023-04-06T03:03:32;1.70;82.70
24664;DHT22;12791;50.992;13.788;2023-04-06T03:06:00;1.60;82.70
24664;DHT22;12791;50.992;13.788;2023-04-06T03:08:27;1.70;83.40
24664;DHT22;12791;50.992;13.788;2023-04-06T03:10:53;1.60;82.60
24664;DHT22;12791;50.992;13.788;2023-04-06T03:13:20;1.70;83.20
24664;DHT22;12791;50.992;13.788;2023-04-06T03:15:47;1.50;83.50
24664;DHT22;12791;50.992;13.788;2023-04-06T03:18:13;1.70;83.90
24664;DHT22;12791;50.992;13.788;2023-04-06T03:20:40;1.50;83.70
24664;DHT22;12791;50.992;13.788;2023-04-06T03:23:08;1.40;83.30
24664;DHT22;12791;50.992;13.788;2023-04-06T03:25:35;1.40;83.70
24664;DHT22;12791;50.992;13.788;2023-04-06T03:28:01;1.50;84.00
24664;DHT22;12791;50.992;13.788;2023-04-06T03:30:28;1.40;85.00
24664;DHT22;12791;50.992;13.788;2023-04-06T03:32:55;1.30;85.30
24664;DHT22;12791;50.992;13.788;2023-04-06T03:35:21;1.70;85.50
24664;DHT22;12791;50.992;13.788;2023-04-06T03:37:48;1.50;85.30
24664;DHT22;12791;50.992;13.788;2023-04-06T03:40:16;1.40;84.80
24664;DHT22;12791;50.992;13.788;2023-04-06T03:42:43;1.40;84.80
24664;DHT22;12791;50.992;13.788;2023-04-06T03:45:10;1.50;85.10
24664;DHT22;12791;50.992;13.788;2023-04-06T03:47:38;1.40;85.10
24664;DHT22;12791;50.992;13.788;2023-04-06T03:50:05;1.30;85.10
24664;DHT22;12791;50.992;13.788;2023-04-06T03:52:32;1.50;85.70
24664;DHT22;12791;50.992;13.788;2023-04-06T03:54:59;1.50;85.80
24664;DHT22;12791;50.992;13.788;2023-04-06T03:57:26;1.50;85.70
24664;DHT22;12791;50.992;13.788;2023-04-06T03:59:53;1.70;85.10
24664;DHT22;12791;50.992;13.788;2023-04-06T04:02:20;1.50;84.70
24664;DHT22;12791;50.992;13.788;2023-04-06T04:04:46;1.60;84.30
24664;DHT22;12791;50.992;13.788;2023-04-06T04:07:13;1.70;83.40
24664;DHT22;12791;50.992;13.788;2023-04-06T04:09:39;1.40;83.30
24664;DHT22;12791;50.992;13.788;2023-04-06T04:12:06;1.40;83.80
24664;DHT22;12791;50.992;13.788;2023-04-06T04:14:34;1.40;84.20
24664;DHT22;12791;50.992;13.788;2023-04-06T04:17:01;1.50;84.60
24664;DHT22;12791;50.992;13.788;2023-04-06T04:19:27;1.50;84.60
24664;DHT22;12791;50.992;13.788;2023-04-06T04:21:54;1.60;84.70
24664;DHT22;12791;50.992;13.788;2023-04-06T04:24:21;1.30;83.20
24664;DHT22;12791;50.992;13.788;2023-04-06T04:26:47;1.30;83.60
24664;DHT22;12791;50.992;13.788;2023-04-06T04:29:14;1.40;84.50
24664;DHT22;12791;50.992;13.788;2023-04-06T04:31:43;1.20;84.60
24664;DHT22;12791;50.992;13.788;2023-04-06T04:34:09;1.40;84.80
24664;DHT22;12791;50.992;13.788;2023-04-06T04:36:36;1.50;84.80
24664;DHT22;12791;50.992;13.788;2023-04-06T04:39:03;1.40;84.50
24664;DHT22;12791;50.992;13.788;2023-04-06T04:41:29;1.40;84.10
24664;DHT22;12791;50.992;13.788;2023-04-06T04:43:56;1.00;83.70
24664;DHT22;12791;50.992;13.788;2023-04-06T04:46:23;1.10;84.40
24664;DHT22;12791;50.992;13.788;2023-04-06T04:48:51;1.10;84.80
24664;DHT22;12791;50.992;13.788;2023-04-06T04:51:17;1.20;85.90
24664;DHT22;12791;50.992;13.788;2023-04-06T04:53:45;1.10;87.30
24664;DHT22;12791;50.992;13.788;2023-04-06T04:56:11;1.10;88.10
24664;DHT22;12791;50.992;13.788;2023-04-06T04:58:38;1.20;89.10
24664;DHT22;12791;50.992;13.788;2023-04-06T05:01:04;1.20;88.60
24664;DHT22;12791;50.992;13.788;2023-04-06T05:03:32;1.30;88.70
24664;DHT22;12791;50.992;13.788;2023-04-06T05:06:00;1.30;89.50
24664;DHT22;12791;50.992;13.788;2023-04-06T05:08:27;1.20;89.10
24664;DHT22;12791;50.992;13.788;2023-04-06T05:10:53;1.20;89.20
24664;DHT22;12791;50.992;13.788;2023-04-06T05:13:20;1.60;89.10
24664;DHT22;12791;50.992;13.788;2023-04-06T05:15:47;1.30;88.30
24664;DHT22;12791;50.992;13.788;2023-04-06T05:18:14;1.40;88.70
24664;DHT22;12791;50.992;13.788;2023-04-06T05:20:41;1.40;88.60
24664;DHT22;12791;50.992;13.788;2023-04-06T05:23:10;1.60;88.30
24664;DHT22;12791;50.992;13.788;2023-04-06T05:25:36;1.60;87.70
24664;DHT22;12791;50.992;13.788;2023-04-06T05:28:03;1.50;87.30
24664;DHT22;12791;50.992;13.788;2023-04-06T05:30:30;1.50;87.50
24664;DHT22;12791;50.992;13.788;2023-04-06T05:32:56;1.70;87.60
24664;DHT22;12791;50.992;13.788;2023-04-06T05:35:23;1.80;88.20
24664;DHT22;12791;50.992;13.788;2023-04-06T05:37:50;1.60;88.40
24664;DHT22;12791;50.992;13.788;2023-04-06T05:40:18;1.60;88.30
24664;DHT22;12791;50.992;13.788;2023-04-06T05:42:45;1.90;88.50
24664;DHT22;12791;50.992;13.788;2023-04-06T05:45:12;1.70;88.50
24664;DHT22;12791;50.992;13.788;2023-04-06T05:47:42;1.80;88.60
24664;DHT22;12791;50.992;13.788;2023-04-06T05:50:09;1.80;88.90
24664;DHT22;12791;50.992;13.788;2023-04-06T05:52:36;1.90;88.70
24664;DHT22;12791;50.992;13.788;2023-04-06T05:55:03;2.00;87.80
24664;DHT22;12791;50.992;13.788;2023-04-06T05:57:31;2.20;88.10
24664;DHT22;12791;50.992;13.788;2023-04-06T05:59:58;2.10;86.90
24664;DHT22;12791;50.992;13.788;2023-04-06T06:02:25;2.20;86.50
24664;DHT22;12791;50.992;13.788;2023-04-06T06:04:51;2.20;86.40
24664;DHT22;12791;50.992;13.788;2023-04-06T06:07:18;2.30;85.40
24664;DHT22;12791;50.992;13.788;2023-04-06T06:09:44;2.30;85.00
24664;DHT22;12791;50.992;13.788;2023-04-06T06:12:11;2.30;84.70
24664;DHT22;12791;50.992;13.788;2023-04-06T06:14:39;2.40;85.10
24664;DHT22;12791;50.992;13.788;2023-04-06T06:17:06;2.50;85.50
24664;DHT22;12791;50.992;13.788;2023-04-06T06:19:32;2.40;86.10
24664;DHT22;12791;50.992;13.788;2023-04-06T06:21:59;2.60;85.60
24664;DHT22;12791;50.992;13.788;2023-04-06T06:24:27;2.70;85.80
24664;DHT22;12791;50.992;13.788;2023-04-06T06:26:54;2.60;84.90
24664;DHT22;12791;50.992;13.788;2023-04-06T06:29:21;2.80;84.70
24664;DHT22;12791;50.992;13.788;2023-04-06T06:31:50;2.70;84.80
24664;DHT22;12791;50.992;13.788;2023-04-06T06:34:17;2.70;85.00
24664;DHT22;12791;50.992;13.788;2023-04-06T06:36:43;2.80;85.40
24664;DHT22;12791;50.992;13.788;2023-04-06T06:39:10;3.00;86.50
24664;DHT22;12791;50.992;13.788;2023-04-06T06:41:36;2.90;85.20
24664;DHT22;12791;50.992;13.788;2023-04-06T06:44:03;3.00;85.00
24664;DHT22;12791;50.992;13.788;2023-04-06T06:46:30;2.90;85.10
24664;DHT22;12791;50.992;13.788;2023-04-06T06:48:58;3.30;84.10
24664;DHT22;12791;50.992;13.788;2023-04-06T06:51:25;3.30;83.30
24664;DHT22;12791;50.992;13.788;2023-04-06T06:53:52;3.60;81.60
24664;DHT22;12791;50.992;13.788;2023-04-06T06:56:18;3.60;81.30
24664;DHT22;12791;50.992;13.788;2023-04-06T06:58:45;3.60;81.00
24664;DHT22;12791;50.992;13.788;2023-04-06T07:01:12;3.60;80.10
24664;DHT22;12791;50.992;13.788;2023-04-06T07:03:38;3.50;79.40
24664;DHT22;12791;50.992;13.788;2023-04-06T07:06:06;3.40;78.70
24664;DHT22;12791;50.992;13.788;2023-04-06T07:08:33;3.90;78.50
24664;DHT22;12791;50.992;13.788;2023-04-06T07:10:59;3.60;78.80
24664;DHT22;12791;50.992;13.788;2023-04-06T07:13:26;3.50;79.20
24664;DHT22;12791;50.992;13.788;2023-04-06T07:15:53;4.00;79.80
24664;DHT22;12791;50.992;13.788;2023-04-06T07:18:20;4.00;79.80
24664;DHT22;12791;50.992;13.788;2023-04-06T07:20:47;3.80;79.10
24664;DHT22;12791;50.992;13.788;2023-04-06T07:23:15;4.00;79.60
24664;DHT22;12791;50.992;13.788;2023-04-06T07:25:41;4.20;78.90
24664;DHT22;12791;50.992;13.788;2023-04-06T07:28:08;4.20;78.00
24664;DHT22;12791;50.992;13.788;2023-04-06T07:30:34;4.30;77.60
24664;DHT22;12791;50.992;13.788;2023-04-06T07:33:03;4.40;76.00
24664;DHT22;12791;50.992;13.788;2023-04-06T07:35:30;4.40;75.20
24664;DHT22;12791;50.992;13.788;2023-04-06T07:37:57;4.60;76.20
24664;DHT22;12791;50.992;13.788;2023-04-06T07:40:25;4.60;75.70
24664;DHT22;12791;50.992;13.788;2023-04-06T07:42:52;4.70;74.30
24664;DHT22;12791;50.992;13.788;2023-04-06T07:45:19;4.90;71.50
24664;DHT22;12791;50.992;13.788;2023-04-06T07:47:46;4.90;71.00
24664;DHT22;12791;50.992;13.788;2023-04-06T07:50:12;5.00;70.20
24664;DHT22;12791;50.992;13.788;2023-04-06T07:52:39;5.10;67.10
24664;DHT22;12791;50.992;13.788;2023-04-06T07:55:06;5.00;66.60
24664;DHT22;12791;50.992;13.788;2023-04-06T07:57:34;5.30;64.90
24664;DHT22;12791;50.992;13.788;2023-04-06T08:00:01;5.40;64.70
24664;DHT22;12791;50.992;13.788;2023-04-06T08:02:29;5.50;63.20
24664;DHT22;12791;50.992;13.788;2023-04-06T08:04:55;5.50;62.60
24664;DHT22;12791;50.992;13.788;2023-04-06T08:07:22;5.80;62.40
24664;DHT22;12791;50.992;13.788;2023-04-06T08:09:49;5.70;61.20
24664;DHT22;12791;50.992;13.788;2023-04-06T08:12:15;5.90;60.20
24664;DHT22;12791;50.992;13.788;2023-04-06T08:14:43;5.80;60.30
24664;DHT22;12791;50.992;13.788;2023-04-06T08:17:10;5.90;59.20
24664;DHT22;12791;50.992;13.788;2023-04-06T08:19:36;6.10;58.90
24664;DHT22;12791;50.992;13.788;2023-04-06T08:22:03;6.10;58.20
24664;DHT22;12791;50.992;13.788;2023-04-06T08:24:30;6.20;58.20
24664;DHT22;12791;50.992;13.788;2023-04-06T08:26:57;6.20;55.80
24664;DHT22;12791;50.992;13.788;2023-04-06T08:29:24;6.20;54.40
24664;DHT22;12791;50.992;13.788;2023-04-06T08:31:52;6.30;53.30
24664;DHT22;12791;50.992;13.788;2023-04-06T08:34:19;6.30;52.60
24664;DHT22;12791;50.992;13.788;2023-04-06T08:36:45;6.30;53.00
24664;DHT22;12791;50.992;13.788;2023-04-06T08:39:12;6.30;53.80
24664;DHT22;12791;50.992;13.788;2023-04-06T08:41:41;6.50;54.30
24664;DHT22;12791;50.992;13.788;2023-04-06T08:44:08;6.60;54.70
24664;DHT22;12791;50.992;13.788;2023-04-06T08:46:35;6.60;54.60
24664;DHT22;12791;50.992;13.788;2023-04-06T08:49:03;6.70;54.50
24664;DHT22;12791;50.992;13.788;2023-04-06T08:51:32;6.70;54.70
24664;DHT22;12791;50.992;13.788;2023-04-06T08:53:59;6.90;54.00
24664;DHT22;12791;50.992;13.788;2023-04-06T08:56:27;7.10;52.00
24664;DHT22;12791;50.992;13.788;2023-04-06T08:58:55;7.00;51.50
24664;DHT22;12791;50.992;13.788;2023-04-06T09:01:25;7.10;49.70
24664;DHT22;12791;50.992;13.788;2023-04-06T09:03:56;7.10;48.70
24664;DHT22;12791;50.992;13.788;2023-04-06T09:06:24;7.30;46.20
24664;DHT22;12791;50.992;13.788;2023-04-06T09:08:52;7.20;45.10
24664;DHT22;12791;50.992;13.788;2023-04-06T09:11:20;7.30;46.10
24664;DHT22;12791;50.992;13.788;2023-04-06T09:13:48;7.30;43.80
24664;DHT22;12791;50.992;13.788;2023-04-06T09:16:16;7.40;44.90
24664;DHT22;12791;50.992;13.788;2023-04-06T09:18:43;7.40;45.70
24664;DHT22;12791;50.992;13.788;2023-04-06T09:21:10;7.50;43.60
24664;DHT22;12791;50.992;13.788;2023-04-06T09:23:39;7.50;40.30
24664;DHT22;12791;50.992;13.788;2023-04-06T09:26:07;7.50;40.90
24664;DHT22;12791;50.992;13.788;2023-04-06T09:28:42;7.60;42.10
24664;DHT22;12791;50.992;13.788;2023-04-06T09:31:10;7.70;41.10
24664;DHT22;12791;50.992;13.788;2023-04-06T09:33:38;7.70;39.50
24664;DHT22;12791;50.992;13.788;2023-04-06T09:36:06;7.90;38.80
24664;DHT22;12791;50.992;13.788;2023-04-06T09:38:33;7.90;39.10
24664;DHT22;12791;50.992;13.788;2023-04-06T09:41:01;7.90;37.50
24664;DHT22;12791;50.992;13.788;2023-04-06T09:43:28;8.00;35.70
24664;DHT22;12791;50.992;13.788;2023-04-06T09:45:56;7.90;37.00
24664;DHT22;12791;50.992;13.788;2023-04-06T09:48:24;8.00;38.10
24664;DHT22;12791;50.992;13.788;2023-04-06T09:50:56;8.00;37.60
24664;DHT22;12791;50.992;13.788;2023-04-06T09:53:26;8.10;37.80
24664;DHT22;12791;50.992;13.788;2023-04-06T09:55:57;8.00;36.80
24664;DHT22;12791;50.992;13.788;2023-04-06T09:58:33;8.00;37.50
24664;DHT22;12791;50.992;13.788;2023-04-06T10:01:05;8.00;36.30
24664;DHT22;12791;50.992;13.788;2023-04-06T10:03:40;8.00;35.70
24664;DHT22;12791;50.992;13.788;2023-04-06T10:06:11;8.00;35.60
24664;DHT22;12791;50.992;13.788;2023-04-06T10:08:40;8.10;35.70
24664;DHT22;12791;50.992;13.788;2023-04-06T10:11:08;8.30;36.20
24664;DHT22;12791;50.992;13.788;2023-04-06T10:13:36;8.20;36.30
24664;DHT22;12791;50.992;13.788;2023-04-06T10:16:04;8.20;36.20
24664;DHT22;12791;50.992;13.788;2023-04-06T10:18:31;8.40;36.00
24664;DHT22;12791;50.992;13.788;2023-04-06T10:21:03;8.40;35.10
24664;DHT22;12791;50.992;13.788;2023-04-06T10:23:33;8.40;36.00
24664;DHT22;12791;50.992;13.788;2023-04-06T10:26:02;8.60;36.20
24664;DHT22;12791;50.992;13.788;2023-04-06T10:28:31;8.50;36.10
24664;DHT22;12791;50.992;13.788;2023-04-06T10:31:00;8.50;35.60
24664;DHT22;12791;50.992;13.788;2023-04-06T10:33:28;8.50;36.00
24664;DHT22;12791;50.992;13.788;2023-04-06T10:35:55;8.60;36.00
24664;DHT22;12791;50.992;13.788;2023-04-06T10:38:33;8.60;34.20
24664;DHT22;12791;50.992;13.788;2023-04-06T10:41:04;8.70;34.20
24664;DHT22;12791;50.992;13.788;2023-04-06T10:43:33;8.70;34.40
24664;DHT22;12791;50.992;13.788;2023-04-06T10:46:02;8.70;34.50
24664;DHT22;12791;50.992;13.788;2023-04-06T10:48:37;8.80;34.30
24664;DHT22;12791;50.992;13.788;2023-04-06T10:51:08;8.70;33.40
24664;DHT22;12791;50.992;13.788;2023-04-06T10:53:35;8.90;32.30
24664;DHT22;12791;50.992;13.788;2023-04-06T10:56:02;8.90;32.80
24664;DHT22;12791;50.992;13.788;2023-04-06T10:58:30;8.90;32.90
24664;DHT22;12791;50.992;13.788;2023-04-06T11:00:56;8.90;33.70
24664;DHT22;12791;50.992;13.788;2023-04-06T11:03:26;8.90;33.70
24664;DHT22;12791;50.992;13.788;2023-04-06T11:05:53;8.90;34.40
24664;DHT22;12791;50.992;13.788;2023-04-06T11:08:24;8.90;35.00
24664;DHT22;12791;50.992;13.788;2023-04-06T11:10:51;8.90;35.00
24664;DHT22;12791;50.992;13.788;2023-04-06T11:13:18;8.90;33.10
24664;DHT22;12791;50.992;13.788;2023-04-06T11:15:44;8.90;33.80
24664;DHT22;12791;50.992;13.788;2023-04-06T11:18:12;9.10;34.50
24664;DHT22;12791;50.992;13.788;2023-04-06T11:20:40;9.00;33.70
24664;DHT22;12791;50.992;13.788;2023-04-06T11:23:07;9.10;32.40
24664;DHT22;12791;50.992;13.788;2023-04-06T11:25:34;9.10;32.50
24664;DHT22;12791;50.992;13.788;2023-04-06T11:28:00;9.10;30.80
24664;DHT22;12791;50.992;13.788;2023-04-06T11:30:27;9.20;31.40
24664;DHT22;12791;50.992;13.788;2023-04-06T11:33:01;9.10;31.60
24664;DHT22;12791;50.992;13.788;2023-04-06T11:35:31;9.10;30.40
24664;DHT22;12791;50.992;13.788;2023-04-06T11:38:02;9.10;30.90
24664;DHT22;12791;50.992;13.788;2023-04-06T11:40:29;9.10;31.40
24664;DHT22;12791;50.992;13.788;2023-04-06T11:42:58;9.10;31.90
24664;DHT22;12791;50.992;13.788;2023-04-06T11:45:25;9.20;30.60
24664;DHT22;12791;50.992;13.788;2023-04-06T11:47:59;9.20;31.30
24664;DHT22;12791;50.992;13.788;2023-04-06T11:50:31;9.30;32.30
24664;DHT22;12791;50.992;13.788;2023-04-06T11:53:00;9.30;33.20
24664;DHT22;12791;50.992;13.788;2023-04-06T11:55:28;9.40;32.20
24664;DHT22;12791;50.992;13.788;2023-04-06T11:57:54;9.30;32.50
24664;DHT22;12791;50.992;13.788;2023-04-06T12:00:21;9.40;33.00
24664;DHT22;12791;50.992;13.788;2023-04-06T12:02:49;9.50;31.60
24664;DHT22;12791;50.992;13.788;2023-04-06T12:05:16;9.50;31.90
24664;DHT22;12791;50.992;13.788;2023-04-06T12:07:42;9.60;31.30
24664;DHT22;12791;50.992;13.788;2023-04-06T12:10:11;9.70;31.50
24664;DHT22;12791;50.992;13.788;2023-04-06T12:12:37;9.80;31.90
24664;DHT22;12791;50.992;13.788;2023-04-06T12:15:05;10.00;30.50
24664;DHT22;12791;50.992;13.788;2023-04-06T12:17:32;9.90;31.00
24664;DHT22;12791;50.992;13.788;2023-04-06T12:19:59;10.00;29.90
24664;DHT22;12791;50.992;13.788;2023-04-06T12:22:26;10.00;30.60
24664;DHT22;12791;50.992;13.788;2023-04-06T12:24:52;10.10;29.90
24664;DHT22;12791;50.992;13.788;2023-04-06T12:27:20;10.10;29.20
24664;DHT22;12791;50.992;13.788;2023-04-06T12:29:47;10.10;29.20
24664;DHT22;12791;50.992;13.788;2023-04-06T12:32:13;10.20;29.70
24664;DHT22;12791;50.992;13.788;2023-04-06T12:34:40;10.10;29.00
24664;DHT22;12791;50.992;13.788;2023-04-06T12:37:07;10.10;29.80
24664;DHT22;12791;50.992;13.788;2023-04-06T12:39:33;10.10;29.70
24664;DHT22;12791;50.992;13.788;2023-04-06T12:42:00;10.20;29.40
24664;DHT22;12791;50.992;13.788;2023-04-06T12:44:29;10.20;29.40
24664;DHT22;12791;50.992;13.788;2023-04-06T12:46:56;10.10;29.80
24664;DHT22;12791;50.992;13.788;2023-04-06T12:49:22;10.10;28.90
24664;DHT22;12791;50.992;13.788;2023-04-06T12:51:49;10.00;29.50
24664;DHT22;12791;50.992;13.788;2023-04-06T12:54:16;9.90;29.80
24664;DHT22;12791;50.992;13.788;2023-04-06T12:56:42;9.80;30.10
24664;DHT22;12791;50.992;13.788;2023-04-06T12:59:09;9.70;30.10
24664;DHT22;12791;50.992;13.788;2023-04-06T13:01:37;9.70;30.00
24664;DHT22;12791;50.992;13.788;2023-04-06T13:04:03;9.60;29.80
24664;DHT22;12791;50.992;13.788;2023-04-06T13:06:30;9.50;30.00
24664;DHT22;12791;50.992;13.788;2023-04-06T13:08:57;9.40;31.10
24664;DHT22;12791;50.992;13.788;2023-04-06T13:11:25;9.40;31.50
24664;DHT22;12791;50.992;13.788;2023-04-06T13:13:51;9.50;31.20
24664;DHT22;12791;50.992;13.788;2023-04-06T13:16:18;9.50;31.10
24664;DHT22;12791;50.992;13.788;2023-04-06T13:18:46;9.60;31.10
24664;DHT22;12791;50.992;13.788;2023-04-06T13:21:14;9.70;31.00
24664;DHT22;12791;50.992;13.788;2023-04-06T13:23:42;9.70;30.10
24664;DHT22;12791;50.992;13.788;2023-04-06T13:26:08;9.80;30.10
24664;DHT22;12791;50.992;13.788;2023-04-06T13:28:36;9.80;30.20
24664;DHT22;12791;50.992;13.788;2023-04-06T13:31:04;10.00;30.00
24664;DHT22;12791;50.992;13.788;2023-04-06T13:33:31;9.90;31.40
24664;DHT22;12791;50.992;13.788;2023-04-06T13:35:59;10.00;30.40
24664;DHT22;12791;50.992;13.788;2023-04-06T13:38:26;10.00;29.80
24664;DHT22;12791;50.992;13.788;2023-04-06T13:40:53;10.10;30.10
24664;DHT22;12791;50.992;13.788;2023-04-06T13:43:20;10.10;30.00
24664;DHT22;12791;50.992;13.788;2023-04-06T13:45:49;10.20;30.40
24664;DHT22;12791;50.992;13.788;2023-04-06T13:48:16;10.20;30.10
24664;DHT22;12791;50.992;13.788;2023-04-06T13:50:43;10.30;30.30
24664;DHT22;12791;50.992;13.788;2023-04-06T13:53:11;10.40;30.60
24664;DHT22;12791;50.992;13.788;2023-04-06T13:55:38;10.40;30.20
24664;DHT22;12791;50.992;13.788;2023-04-06T13:58:05;10.50;30.10
24664;DHT22;12791;50.992;13.788;2023-04-06T14:00:32;10.60;30.00
24664;DHT22;12791;50.992;13.788;2023-04-06T14:02:58;10.60;30.30
24664;DHT22;12791;50.992;13.788;2023-04-06T14:05:25;10.70;30.50
24664;DHT22;12791;50.992;13.788;2023-04-06T14:07:53;10.80;30.50
24664;DHT22;12791;50.992;13.788;2023-04-06T14:10:21;10.90;30.50
24664;DHT22;12791;50.992;13.788;2023-04-06T14:12:49;11.00;29.90
24664;DHT22;12791;50.992;13.788;2023-04-06T14:15:16;11.10;29.70
24664;DHT22;12791;50.992;13.788;2023-04-06T14:17:43;11.00;29.60
24664;DHT22;12791;50.992;13.788;2023-04-06T14:20:10;11.00;29.40
24664;DHT22;12791;50.992;13.788;2023-04-06T14:22:39;11.20;28.80
24664;DHT22;12791;50.992;13.788;2023-04-06T14:25:07;10.90;29.30
24664;DHT22;12791;50.992;13.788;2023-04-06T14:27:35;10.90;29.80
24664;DHT22;12791;50.992;13.788;2023-04-06T14:30:02;10.90;29.80
24664;DHT22;12791;50.992;13.788;2023-04-06T14:32:29;10.90;29.40
24664;DHT22;12791;50.992;13.788;2023-04-06T14:34:55;10.90;29.30
24664;DHT22;12791;50.992;13.788;2023-04-06T14:37:22;10.90;28.60
24664;DHT22;12791;50.992;13.788;2023-04-06T14:39:49;10.90;30.00
24664;DHT22;12791;50.992;13.788;2023-04-06T14:42:15;11.00;29.50
24664;DHT22;12791;50.992;13.788;2023-04-06T14:44:43;11.00;29.40
24664;DHT22;12791;50.992;13.788;2023-04-06T14:47:11;11.10;29.70
24664;DHT22;12791;50.992;13.788;2023-04-06T14:49:40;11.00;29.60
24664;DHT22;12791;50.992;13.788;2023-04-06T14:52:07;11.00;28.80
24664;DHT22;12791;50.992;13.788;2023-04-06T14:54:34;11.00;28.90
24664;DHT22;12791;50.992;13.788;2023-04-06T14:57:00;10.90;28.40
24664;DHT22;12791;50.992;13.788;2023-04-06T14:59:27;11.00;29.20
24664;DHT22;12791;50.992;13.788;2023-04-06T15:01:55;11.00;30.20
24664;DHT22;12791;50.992;13.788;2023-04-06T15:04:22;11.10;30.00
24664;DHT22;12791;50.992;13.788;2023-04-06T15:06:48;11.20;30.00
24664;DHT22;12791;50.992;13.788;2023-04-06T15:09:15;11.20;29.30
24664;DHT22;12791;50.992;13.788;2023-04-06T15:11:41;11.20;29.30
24664;DHT22;12791;50.992;13.788;2023-04-06T15:14:08;11.10;29.20
24664;DHT22;12791;50.992;13.788;2023-04-06T15:16:35;11.10;28.90
24664;DHT22;12791;50.992;13.788;2023-04-06T15:19:03;11.10;28.90
24664;DHT22;12791;50.992;13.788;2023-04-06T15:21:29;11.00;29.10
24664;DHT22;12791;50.992;13.788;2023-04-06T15:23:57;11.00;29.30
24664;DHT22;12791;50.992;13.788;2023-04-06T15:26:24;11.00;28.70
24664;DHT22;12791;50.992;13.788;2023-04-06T15:28:51;10.90;28.50